Sam Ratulangi Airport
WAMM : now visible

Airfield :











YOU CAN JOIN US ON...

 
LOGIN :

Register | Disclaimer

   EN    FR    IT 

 









Legend :    VFR   Marginal VFR   IFR   Intensive IFR   Very Intensive IFR
Visi :
Ceiling :
>= 8 km
>= 3000ft
5 to 8 km
1000 to 3000 ft
1500m to 5 km
500 to 1000 ft
800 to 1500m
200 to 500 ft
< 800m
< 200 ft
Symbols :   Thunderstorms  Fog  Heavy snow  Heavy precipitations  Wind > 20 kt






- Airport Elevation : 264 ft
- IATA code : MDC


WAMM - Sam Ratulangi

CURRENT METAR :
  • 270630Z 36005KT 310V040 8000 -RA SCT020 30/24 Q1006 NOSIG RMK VIS 5000 TO S

EXPIRED METARs :
  • 270600Z 35007KT 290V020 9999 SCT021 31/24 Q1006 NOSIG
  • 270530Z 36008KT 9999 SCT021 30/24 Q1006 NOSIG
  • 270500Z 01007KT 330V040 9999 SCT021 31/24 Q1007 NOSIG
  • 270430Z 35007KT 320V020 9999 SCT020 29/25 Q1007 NOSIG

TAF TAF WAMM
Valid from the 27 at 06:00 until the 28 at 12:00 UTC


270500Z 2706/2812 35008KT 9999 SCT021
BECMG 2711/2712 VRB03KT
WAAF FIR / Asia



MET'MAP, your aeronautical weather chart ! - Copyright ORBIFLY December 2007 - Disclaimer

ORBIFLY MET'MAP TEAM :

Programming & Development : Alexandra Zaïnal
Concept & original design : Baudouin d'Aumeries
Assistance for programming : Marc-Olivier Méhu
Technical & hardware support : Manuel Goepfert

Contact : metmap@orbifly.com




SOURCES & CREDITS :

   NOAA       Earth
Advisory